Airfield :
LOGIN :

Register | Disclaimer

   EN    FR    IT 

 










Legend :    VFR   Marginal VFR   IFR   Intensive IFR   Very Intensive IFR
Visi :
Ceiling :
>= 8 km
>= 3000ft
5 to 8 km
1000 to 3000 ft
1500m to 5 km
500 to 1000 ft
800 to 1500m
200 to 500 ft
< 800m
< 200 ft
Symbols :   Thunderstorms  Fog  Heavy snow  Heavy precipitations  Wind > 20 kt
SIGMETs :     Misc.  Thunderstorms  Icing  Turbulence  Mountain Waves  Volcanic Ashes






- Airport Elevation : 506 ft
- IATA code : GOT


ESGG - Landvetter

CURRENT METAR :
  • 062120Z 27009KT CAVOK 13/09 Q1001

EXPIRED METARs :
  • 062050Z 26008KT 230V300 9999 FEW030 12/10 Q1001
  • 062020Z 27008KT 9999 SCT030 13/10 Q1001
  • 061950Z 27010KT 9999 VCSH SCT046 13/10 Q1000
  • 061920Z 26008KT 9999 FEW048 BKN072 13/10 Q0999
  • 061850Z 27010KT 9999 SCT068 BKN094 13/10 Q0999
  • 061820Z 27012KT 9999 SCT049 13/10 Q0998

TAF TAF ESGG
Valid from the 06 at 18:00 until the 07 at 18:00 UTC


061730Z 0618/0718 26012KT 9999 SCT015 BKN040
TEMPO 0618/0622 2500 SHRA BKN008 BKN020CB
TEMPO 0705/0713 25015G25KT SHRA BKN020CB
PROB40 0713/0718 25015G25KT TSRA BKN025CB



MET'MAP, your aeronautical weather chart ! - Copyright ORBIFLY December 2007 - Disclaimer

ORBIFLY MET'MAP TEAM :

Programming & Development : Alexandra Zaïnal
Concept & original design : Baudouin d'Aumeries
Assistance for programming : Marc-Olivier Méhu
Technical & hardware support : Manuel Goepfert

Contact : metmap@orbifly.com




SOURCES & CREDITS :

   NOAA